createdAt,value
2018-12-04T00:01:20.447Z,12.37
2018-12-04T00:03:48.221Z,10.23
2018-12-04T00:06:15.665Z,13.30
2018-12-04T00:08:43.431Z,13.33
2018-12-04T00:11:10.885Z,14.73
2018-12-04T00:13:38.323Z,15.90
2018-12-04T00:16:05.768Z,17.17
2018-12-04T00:18:33.199Z,15.53
2018-12-04T00:21:00.935Z,17.17
2018-12-04T00:23:28.375Z,17.07
2018-12-04T00:25:56.143Z,18.60
2018-12-04T00:28:23.579Z,17.50
2018-12-04T00:30:51.268Z,17.50
2018-12-04T00:33:18.699Z,16.40
2018-12-04T00:35:46.144Z,12.47
2018-12-04T00:38:13.847Z,13.90
2018-12-04T00:40:41.299Z,12.97
2018-12-04T00:43:08.730Z,12.63
2018-12-04T00:45:36.419Z,17.00
2018-12-04T00:48:04.408Z,17.00
2018-12-04T00:50:31.852Z,13.90
2018-12-04T00:52:59.612Z,9.20
2018-12-04T00:55:31.067Z,5.55
2018-12-04T00:57:58.505Z,4.42
2018-12-04T01:00:26.285Z,2.35
2018-12-04T01:02:54.047Z,3.55
2018-12-04T01:05:21.588Z,1.98
2018-12-04T01:07:49.276Z,2.15
2018-12-04T01:10:16.715Z,1.80
2018-12-04T01:12:44.145Z,1.80
2018-12-04T01:15:11.588Z,1.77
2018-12-04T01:17:39.020Z,1.82
2018-12-04T01:20:06.639Z,2.12
2018-12-04T01:22:34.067Z,2.17
2018-12-04T01:25:01.789Z,2.60
2018-12-04T01:27:29.219Z,2.90
2018-12-04T01:29:56.905Z,3.12
2018-12-04T01:32:24.682Z,4.60
2018-12-04T01:34:52.104Z,4.00
2018-12-04T01:37:19.550Z,3.47
2018-12-04T01:39:46.967Z,4.67
2018-12-04T01:42:14.411Z,5.20
2018-12-04T01:44:41.839Z,4.40
2018-12-04T01:47:09.277Z,4.15
2018-12-04T01:49:36.708Z,4.45
2018-12-04T01:52:04.147Z,3.67
2018-12-04T01:54:31.588Z,4.10
2018-12-04T01:56:59.375Z,4.60
2018-12-04T01:59:26.807Z,4.25
2018-12-04T02:01:54.250Z,4.42
2018-12-04T02:04:21.683Z,4.58
2018-12-04T02:06:49.383Z,3.65
2018-12-04T02:09:17.156Z,4.00
2018-12-04T02:11:44.923Z,5.25
2018-12-04T02:14:12.350Z,4.42
2018-12-04T02:16:39.784Z,3.95
2018-12-04T02:19:47.134Z,4.20
2018-12-04T02:22:14.626Z,5.00
2018-12-04T02:24:42.050Z,4.85
2018-12-04T02:27:09.479Z,4.95
2018-12-04T02:29:36.910Z,4.20
2018-12-04T02:32:04.367Z,4.58
2018-12-04T02:34:31.908Z,5.00
2018-12-04T02:36:59.409Z,4.47
2018-12-04T02:39:27.342Z,4.95
2018-12-04T02:41:54.778Z,4.37
2018-12-04T02:44:22.290Z,3.27
2018-12-04T02:46:49.714Z,3.75
2018-12-04T02:49:17.152Z,4.17
2018-12-04T02:51:44.610Z,4.08
2018-12-04T02:54:12.044Z,4.12
2018-12-04T02:56:39.475Z,3.50
2018-12-04T02:59:06.930Z,2.87
2018-12-04T03:01:34.382Z,5.70
2018-12-04T03:04:01.818Z,3.52
2018-12-04T03:06:29.279Z,4.03
2018-12-04T03:08:56.710Z,3.62
2018-12-04T03:11:24.178Z,3.80
2018-12-04T03:13:51.614Z,4.22
2018-12-04T03:16:19.052Z,3.85
2018-12-04T03:18:46.576Z,4.80
2018-12-04T03:21:14.042Z,3.72
2018-12-04T03:23:41.470Z,4.17
2018-12-04T03:26:08.946Z,3.42
2018-12-04T03:28:36.398Z,4.20
2018-12-04T03:31:04.053Z,3.92
2018-12-04T03:33:38.620Z,3.83
2018-12-04T03:36:06.154Z,5.15
2018-12-04T03:38:33.600Z,6.40
2018-12-04T03:41:01.097Z,4.78
2018-12-04T03:43:28.521Z,4.30
2018-12-04T03:45:55.982Z,4.65
2018-12-04T03:48:23.462Z,6.05
2018-12-04T03:50:50.919Z,6.80
2018-12-04T03:53:18.658Z,5.72
2018-12-04T03:55:46.184Z,5.17
2018-12-04T03:58:13.637Z,5.37
2018-12-04T04:00:41.101Z,6.47
2018-12-04T04:03:08.573Z,5.70
2018-12-04T04:05:36.032Z,6.28
2018-12-04T04:08:03.503Z,6.37
2018-12-04T04:10:31.246Z,5.47
2018-12-04T04:12:58.755Z,5.92
2018-12-04T04:15:26.318Z,5.50
2018-12-04T04:17:53.778Z,6.00
2018-12-04T04:20:21.270Z,5.60
2018-12-04T04:22:48.710Z,5.45
2018-12-04T04:25:16.140Z,6.25
2018-12-04T04:27:43.662Z,6.45
2018-12-04T04:30:11.145Z,6.00
2018-12-04T04:32:38.584Z,5.42
2018-12-04T04:35:06.069Z,7.20
2018-12-04T04:37:33.503Z,5.40
2018-12-04T04:40:00.930Z,6.47
2018-12-04T04:42:28.372Z,6.40
2018-12-04T04:44:55.798Z,6.90
2018-12-04T04:47:23.315Z,7.20
2018-12-04T04:49:50.855Z,8.05
2018-12-04T04:52:18.319Z,6.92
2018-12-04T04:54:45.740Z,6.65
2018-12-04T04:57:13.259Z,6.67
2018-12-04T04:59:40.714Z,7.40
2018-12-04T05:02:08.186Z,7.30
2018-12-04T05:04:35.620Z,6.78
2018-12-04T05:07:03.106Z,8.05
2018-12-04T05:09:30.534Z,7.40
2018-12-04T05:11:57.997Z,8.30
2018-12-04T05:14:25.637Z,7.25
2018-12-04T05:16:53.176Z,7.37
2018-12-04T05:19:20.598Z,6.97
2018-12-04T05:21:48.057Z,5.87
2018-12-04T05:24:15.486Z,6.25
2018-12-04T05:26:42.945Z,6.05
2018-12-04T05:29:10.365Z,6.25
2018-12-04T05:31:37.842Z,6.53
2018-12-04T05:34:05.279Z,6.78
2018-12-04T05:36:32.811Z,6.60
2018-12-04T05:39:00.266Z,6.78
2018-12-04T05:41:27.690Z,6.70
2018-12-04T05:43:55.143Z,8.20
2018-12-04T05:46:22.602Z,7.55
2018-12-04T05:48:50.121Z,8.03
2018-12-04T05:51:17.552Z,8.15
2018-12-04T05:53:45.679Z,8.65
2018-12-04T05:56:13.127Z,8.58
2018-12-04T05:58:40.610Z,8.43
2018-12-04T06:01:08.078Z,8.25
2018-12-04T06:03:35.558Z,9.93
2018-12-04T06:06:03.083Z,9.15
2018-12-04T06:08:30.542Z,11.80
2018-12-04T06:10:58.018Z,11.45
2018-12-04T06:13:25.455Z,10.08
2018-12-04T06:15:52.878Z,10.63
2018-12-04T06:18:20.318Z,10.70
2018-12-04T06:20:47.743Z,10.00
2018-12-04T06:23:15.211Z,10.38
2018-12-04T06:25:42.643Z,10.45
2018-12-04T06:28:10.187Z,9.23
2018-12-04T06:30:37.619Z,8.18
2018-12-04T06:33:05.116Z,7.72
2018-12-04T06:35:32.790Z,7.33
2018-12-04T06:38:00.236Z,7.78
2018-12-04T06:40:27.737Z,7.55
2018-12-04T06:42:55.206Z,8.98
2018-12-04T06:45:22.638Z,10.68
2018-12-04T06:47:50.070Z,6.95
2018-12-04T06:50:17.809Z,7.28
2018-12-04T06:52:45.243Z,7.62
2018-12-04T06:55:12.790Z,7.10
2018-12-04T06:57:40.307Z,6.12
2018-12-04T07:00:07.794Z,6.25
2018-12-04T07:02:35.225Z,5.35
2018-12-04T07:05:02.719Z,7.00
2018-12-04T07:07:30.163Z,6.83
2018-12-04T07:09:57.591Z,7.47
2018-12-04T07:12:25.018Z,6.83
2018-12-04T07:14:52.515Z,7.72
2018-12-04T07:17:19.937Z,7.55
2018-12-04T07:19:47.377Z,6.05
2018-12-04T07:22:14.910Z,6.55
2018-12-04T07:24:42.338Z,5.08
2018-12-04T07:27:09.774Z,6.12
2018-12-04T07:29:37.204Z,6.33
2018-12-04T07:32:04.630Z,6.25
2018-12-04T07:34:32.066Z,7.22
2018-12-04T07:36:59.518Z,6.25
2018-12-04T07:39:26.986Z,7.67
2018-12-04T07:41:54.416Z,8.00
2018-12-04T07:44:21.846Z,6.95
2018-12-04T07:46:49.461Z,10.75
2018-12-04T07:49:16.898Z,10.08
2018-12-04T07:51:44.326Z,10.40
2018-12-04T07:54:11.762Z,11.05
2018-12-04T07:56:39.190Z,12.50
2018-12-04T07:59:06.655Z,10.13
2018-12-04T08:01:34.074Z,10.45
2018-12-04T08:04:01.546Z,10.55
2018-12-04T08:06:28.966Z,10.88
2018-12-04T08:08:56.436Z,10.93
2018-12-04T08:11:23.871Z,10.05
2018-12-04T08:13:51.343Z,10.43
2018-12-04T08:16:18.766Z,10.35
2018-12-04T08:18:46.207Z,10.15
2018-12-04T08:21:13.635Z,10.68
2018-12-04T08:23:41.151Z,11.35
2018-12-04T08:26:08.583Z,11.97
2018-12-04T08:28:36.108Z,10.10
2018-12-04T08:31:03.594Z,10.20
2018-12-04T08:33:31.028Z,11.10
2018-12-04T08:35:58.562Z,8.60
2018-12-04T08:38:26.010Z,9.30
2018-12-04T08:40:53.430Z,9.70
2018-12-04T08:43:20.868Z,9.13
2018-12-04T08:45:48.321Z,9.08
2018-12-04T08:48:15.806Z,9.03
2018-12-04T08:50:43.240Z,8.90
2018-12-04T08:53:10.663Z,8.90
2018-12-04T08:55:38.104Z,7.60
2018-12-04T08:58:05.561Z,7.60
2018-12-04T09:00:33.023Z,7.45
2018-12-04T09:03:00.455Z,8.08
2018-12-04T09:05:27.986Z,8.40
2018-12-04T09:07:55.410Z,8.70
2018-12-04T09:10:22.929Z,6.50
2018-12-04T09:12:50.382Z,7.50
2018-12-04T09:15:17.822Z,6.35
2018-12-04T09:17:45.277Z,6.55
2018-12-04T09:20:12.727Z,5.67
2018-12-04T09:22:40.280Z,6.12
2018-12-04T09:25:07.816Z,5.92
2018-12-04T09:27:35.395Z,6.03
2018-12-04T09:30:03.537Z,6.53
2018-12-04T09:32:31.086Z,6.37
2018-12-04T09:34:58.514Z,4.97
2018-12-04T09:37:25.992Z,5.05
2018-12-04T09:39:53.434Z,5.95
2018-12-04T09:42:20.846Z,3.50
2018-12-04T09:44:48.285Z,3.90
2018-12-04T09:47:16.780Z,4.92
2018-12-04T09:49:44.353Z,6.47
2018-12-04T09:52:12.058Z,6.07
2018-12-04T09:54:39.515Z,6.15
2018-12-04T09:57:07.360Z,7.22
2018-12-04T09:59:39.483Z,6.08
2018-12-04T10:02:04.238Z,6.25
2018-12-04T10:04:31.676Z,6.35
2018-12-04T10:06:59.102Z,6.25
2018-12-04T10:09:26.530Z,6.22
2018-12-04T10:11:54.090Z,5.10
2018-12-04T10:14:21.540Z,5.60
2018-12-04T10:16:48.962Z,5.10
2018-12-04T10:19:16.423Z,5.37
2018-12-04T10:21:43.837Z,4.85
2018-12-04T10:24:11.271Z,5.40
2018-12-04T10:26:39.522Z,4.47
2018-12-04T10:29:06.982Z,3.70
2018-12-04T10:31:34.410Z,4.28
2018-12-04T10:34:01.959Z,4.47
2018-12-04T10:36:29.412Z,3.95
2018-12-04T10:38:56.866Z,4.30
2018-12-04T10:41:24.386Z,5.15
2018-12-04T10:43:51.869Z,3.50
2018-12-04T10:46:19.379Z,2.77
2018-12-04T10:48:46.814Z,3.22
2018-12-04T10:51:14.250Z,3.45
2018-12-04T10:53:41.698Z,4.00
2018-12-04T10:56:09.158Z,3.77
2018-12-04T10:58:36.595Z,3.90
2018-12-04T11:01:06.034Z,3.47
2018-12-04T11:03:37.374Z,3.50
2018-12-04T11:06:05.235Z,3.50
2018-12-04T11:08:32.699Z,2.95
2018-12-04T11:11:00.130Z,3.27
2018-12-04T11:13:27.583Z,2.62
2018-12-04T11:15:55.035Z,3.20
2018-12-04T11:18:22.506Z,3.85
2018-12-04T11:20:49.947Z,3.80
2018-12-04T11:23:17.402Z,2.83
2018-12-04T11:25:44.842Z,3.75
2018-12-04T11:28:12.273Z,3.75
2018-12-04T11:30:39.798Z,3.72
2018-12-04T11:33:07.242Z,4.25
2018-12-04T11:35:34.682Z,4.20
2018-12-04T11:38:02.134Z,4.67
2018-12-04T11:40:29.602Z,3.83
2018-12-04T11:42:57.026Z,3.60
2018-12-04T11:45:24.523Z,9.80
2018-12-04T11:47:52.011Z,5.00
2018-12-04T11:50:19.553Z,3.60
2018-12-04T11:52:46.997Z,4.00
2018-12-04T11:55:14.450Z,3.92
2018-12-04T11:57:41.877Z,4.22
2018-12-04T12:00:11.904Z,3.75
2018-12-04T12:02:39.387Z,3.58
2018-12-04T12:05:06.879Z,3.50
2018-12-04T12:07:34.310Z,3.50
2018-12-04T12:10:01.781Z,2.95
2018-12-04T12:12:29.326Z,3.15
2018-12-04T12:14:56.759Z,3.33
2018-12-04T12:17:24.194Z,3.17
2018-12-04T12:19:51.639Z,3.40
2018-12-04T12:22:19.142Z,4.00
2018-12-04T12:24:46.571Z,4.00
2018-12-04T12:27:14.006Z,4.37
2018-12-04T12:29:41.462Z,4.22
2018-12-04T12:32:08.930Z,5.65
2018-12-04T12:34:36.363Z,4.90
2018-12-04T12:37:03.863Z,4.42
2018-12-04T12:39:31.291Z,3.60
2018-12-04T12:41:58.799Z,5.78
2018-12-04T12:44:26.223Z,4.05
2018-12-04T12:46:53.710Z,3.05
2018-12-04T12:49:21.147Z,3.90
2018-12-04T12:51:48.599Z,3.85
2018-12-04T12:54:16.051Z,3.40
2018-12-04T12:56:43.554Z,3.00
2018-12-04T12:59:10.978Z,3.25
2018-12-04T13:01:38.414Z,3.00
2018-12-04T13:04:05.846Z,2.10
2018-12-04T13:06:33.333Z,2.92
2018-12-04T13:09:00.850Z,2.37
2018-12-04T13:11:28.297Z,3.35
2018-12-04T13:13:55.745Z,2.95
2018-12-04T13:16:23.209Z,3.37
2018-12-04T13:18:50.663Z,3.15
2018-12-04T13:21:18.121Z,2.70
2018-12-04T13:23:45.568Z,2.80
2018-12-04T13:26:13.085Z,2.70
2018-12-04T13:28:40.507Z,2.35
2018-12-04T13:31:07.960Z,3.17
2018-12-04T13:33:35.444Z,3.02
2018-12-04T13:36:03.014Z,2.77
2018-12-04T13:38:30.442Z,2.40
2018-12-04T13:40:57.874Z,1.77
2018-12-04T13:43:25.330Z,2.37
2018-12-04T13:45:52.846Z,1.80
2018-12-04T13:48:20.334Z,2.37
2018-12-04T13:50:47.856Z,2.72
2018-12-04T13:53:15.370Z,3.05
2018-12-04T13:55:42.855Z,3.97
2018-12-04T13:58:10.306Z,2.98
2018-12-04T14:00:37.763Z,3.75
2018-12-04T14:03:05.341Z,3.00
2018-12-04T14:05:32.865Z,3.10
2018-12-04T14:08:00.394Z,3.47
2018-12-04T14:10:27.848Z,3.12
2018-12-04T14:12:55.316Z,3.00
2018-12-04T14:15:22.819Z,3.00
2018-12-04T14:17:50.409Z,2.85
2018-12-04T14:20:17.899Z,1.72
2018-12-04T14:22:45.376Z,2.65
2018-12-04T14:25:12.891Z,2.27
2018-12-04T14:27:40.414Z,2.10
2018-12-04T14:30:09.752Z,2.05
2018-12-04T14:32:37.210Z,1.95
2018-12-04T14:35:04.964Z,1.80
2018-12-04T14:37:32.514Z,2.50
2018-12-04T14:40:00.339Z,2.25
2018-12-04T14:42:27.883Z,2.80
2018-12-04T14:44:55.368Z,2.12
2018-12-04T14:47:22.861Z,2.10
2018-12-04T14:49:50.385Z,2.52
2018-12-04T14:52:17.924Z,2.33
2018-12-04T14:54:45.430Z,2.22
2018-12-04T14:57:12.887Z,2.60
2018-12-04T14:59:40.346Z,2.30
2018-12-04T15:02:07.886Z,2.10
2018-12-04T15:04:35.405Z,2.37
2018-12-04T15:07:02.989Z,2.25
2018-12-04T15:09:30.503Z,2.50
2018-12-04T15:11:58.158Z,2.92
2018-12-04T15:14:25.692Z,3.85
2018-12-04T15:16:55.127Z,3.17
2018-12-04T15:19:22.638Z,3.40
2018-12-04T15:21:50.115Z,2.90
2018-12-04T15:24:17.830Z,3.15
2018-12-04T15:26:45.297Z,2.65
2018-12-04T15:29:12.771Z,3.37
2018-12-04T15:31:40.250Z,2.65
2018-12-04T15:34:07.771Z,3.02
2018-12-04T15:36:35.404Z,2.45
2018-12-04T15:39:03.366Z,4.00
2018-12-04T15:41:30.791Z,3.62
2018-12-04T15:43:58.287Z,3.50
2018-12-04T15:46:25.773Z,3.65
2018-12-04T15:48:53.306Z,3.22
2018-12-04T15:51:20.794Z,4.08
2018-12-04T15:53:48.235Z,3.55
2018-12-04T15:56:15.735Z,3.55
2018-12-04T15:58:43.307Z,3.80
2018-12-04T16:01:10.749Z,4.20
2018-12-04T16:03:38.175Z,4.42
2018-12-04T16:06:05.613Z,4.08
2018-12-04T16:08:33.139Z,6.05
2018-12-04T16:11:00.571Z,5.25
2018-12-04T16:13:27.990Z,5.17
2018-12-04T16:15:55.545Z,4.20
2018-12-04T16:18:23.013Z,6.50
2018-12-04T16:20:50.433Z,12.35
2018-12-04T16:23:17.957Z,13.28
2018-12-04T16:25:45.383Z,13.68
2018-12-04T16:28:12.906Z,13.10
2018-12-04T16:30:40.342Z,13.20
2018-12-04T16:33:07.778Z,11.20
2018-12-04T16:35:35.209Z,10.90
2018-12-04T16:38:02.642Z,10.95
2018-12-04T16:40:30.059Z,5.40
2018-12-04T16:42:57.489Z,6.10
2018-12-04T16:45:24.950Z,6.35
2018-12-04T16:47:52.512Z,6.25
2018-12-04T16:50:19.974Z,6.70
2018-12-04T16:52:47.494Z,5.92
2018-12-04T16:55:14.923Z,5.00
2018-12-04T16:57:42.762Z,4.72
2018-12-04T17:00:10.374Z,4.60
2018-12-04T17:02:37.999Z,5.40
2018-12-04T17:05:05.485Z,4.87
2018-12-04T17:07:32.925Z,5.72
2018-12-04T17:10:00.383Z,5.22
2018-12-04T17:12:27.999Z,5.12
2018-12-04T17:14:55.428Z,7.30
2018-12-04T17:17:23.035Z,5.50
2018-12-04T17:19:50.462Z,5.75
2018-12-04T17:22:17.878Z,5.70
2018-12-04T17:24:45.406Z,6.60
2018-12-04T17:27:12.944Z,5.47
2018-12-04T17:29:40.406Z,5.72
2018-12-04T17:32:07.875Z,6.33
2018-12-04T17:34:35.310Z,6.55
2018-12-04T17:37:02.766Z,5.62
2018-12-04T17:39:30.299Z,7.12
2018-12-04T17:41:57.870Z,6.25
2018-12-04T17:44:25.317Z,6.00
2018-12-04T17:46:52.734Z,7.75
2018-12-04T17:49:20.243Z,7.45
2018-12-04T17:51:47.679Z,9.48
2018-12-04T17:54:15.113Z,9.68
2018-12-04T17:56:42.623Z,10.48
2018-12-04T17:59:10.054Z,8.78
2018-12-04T18:01:37.471Z,8.78
2018-12-04T18:04:04.953Z,10.18
2018-12-04T18:06:32.387Z,10.30
2018-12-04T18:08:59.848Z,9.75
2018-12-04T18:11:27.343Z,9.30
2018-12-04T18:13:54.806Z,11.08
2018-12-04T18:16:22.262Z,8.65
2018-12-04T18:18:49.700Z,9.95
2018-12-04T18:21:17.187Z,8.90
2018-12-04T18:23:44.623Z,10.20
2018-12-04T18:26:12.051Z,8.85
2018-12-04T18:28:39.479Z,9.00
2018-12-04T18:31:06.898Z,8.23
2018-12-04T18:33:34.706Z,9.25
2018-12-04T18:36:02.215Z,10.95
2018-12-04T18:38:29.666Z,7.87
2018-12-04T18:40:57.206Z,10.10
2018-12-04T18:43:24.771Z,7.12
2018-12-04T18:45:52.190Z,9.58
2018-12-04T18:48:19.705Z,10.10
2018-12-04T18:50:47.127Z,8.10
2018-12-04T18:53:14.615Z,7.00
2018-12-04T18:55:42.054Z,9.45
2018-12-04T18:58:09.563Z,10.90
2018-12-04T19:00:36.998Z,12.75
2018-12-04T19:03:04.508Z,10.98
2018-12-04T19:05:31.975Z,9.25
2018-12-04T19:07:59.410Z,9.53
2018-12-04T19:10:27.277Z,9.68
2018-12-04T19:12:54.815Z,8.50
2018-12-04T19:15:22.315Z,10.60
2018-12-04T19:17:49.819Z,11.12
2018-12-04T19:20:17.253Z,10.15
2018-12-04T19:22:44.730Z,8.40
2018-12-04T19:25:12.195Z,9.20
2018-12-04T19:27:39.774Z,9.90
2018-12-04T19:30:11.136Z,10.03
2018-12-04T19:32:38.710Z,10.05
2018-12-04T19:35:07.986Z,9.30
2018-12-04T19:37:35.410Z,9.90
2018-12-04T19:40:03.402Z,10.23
2018-12-04T19:42:30.840Z,10.63
2018-12-04T19:44:58.355Z,9.90
2018-12-04T19:47:25.774Z,9.90
2018-12-04T19:49:53.210Z,10.25
2018-12-04T19:52:20.664Z,11.33
2018-12-04T19:54:48.127Z,9.60
2018-12-04T19:57:15.615Z,10.40
2018-12-04T19:59:43.119Z,10.38
2018-12-04T20:02:10.810Z,10.05
2018-12-04T20:04:38.247Z,12.73
2018-12-04T20:07:05.805Z,13.68
2018-12-04T20:09:33.377Z,12.23
2018-12-04T20:12:00.806Z,10.08
2018-12-04T20:14:28.423Z,11.57
2018-12-04T20:16:55.865Z,13.35
2018-12-04T20:19:23.291Z,11.43
2018-12-04T20:21:50.795Z,18.15
2018-12-04T20:24:18.234Z,17.48
2018-12-04T20:26:45.777Z,11.22
2018-12-04T20:29:13.521Z,11.53
2018-12-04T20:31:40.994Z,13.18
2018-12-04T20:34:08.425Z,13.53
2018-12-04T20:36:35.951Z,11.93
2018-12-04T20:39:05.744Z,11.78
2018-12-04T20:41:33.151Z,10.90
2018-12-04T20:44:00.611Z,10.28
2018-12-04T20:46:28.700Z,10.90
2018-12-04T20:48:56.114Z,11.33
2018-12-04T20:51:23.571Z,10.68
2018-12-04T20:53:50.987Z,10.08
2018-12-04T20:56:18.415Z,10.38
2018-12-04T20:58:45.846Z,11.00
2018-12-04T21:01:13.342Z,12.58
2018-12-04T21:03:40.771Z,12.43
2018-12-04T21:06:08.210Z,12.95
2018-12-04T21:08:35.656Z,10.90
2018-12-04T21:11:03.128Z,10.50
2018-12-04T21:13:30.561Z,12.05
2018-12-04T21:15:58.018Z,13.40
2018-12-04T21:18:25.489Z,11.68
2018-12-04T21:20:52.966Z,13.28
2018-12-04T21:23:20.396Z,13.25
2018-12-04T21:25:47.832Z,11.80
2018-12-04T21:28:21.035Z,10.65
2018-12-04T21:30:54.262Z,11.90
2018-12-04T21:33:27.846Z,10.48
2018-12-04T21:36:01.018Z,12.07
2018-12-04T21:38:34.059Z,12.82
2018-12-04T21:41:03.443Z,12.98
2018-12-04T21:43:37.551Z,11.48
2018-12-04T21:46:10.715Z,12.23
2018-12-04T21:48:38.151Z,11.30
2018-12-04T21:51:05.586Z,12.07
2018-12-04T21:53:33.015Z,12.65
2018-12-04T21:56:00.474Z,12.45
2018-12-04T21:58:28.018Z,13.15
2018-12-04T22:00:55.506Z,12.68
2018-12-04T22:03:23.121Z,12.95
2018-12-04T22:05:50.590Z,13.95
2018-12-04T22:08:18.039Z,14.55
2018-12-04T22:10:45.473Z,14.68
2018-12-04T22:13:12.919Z,13.05
2018-12-04T22:15:40.342Z,13.35
2018-12-04T22:18:07.792Z,12.95
2018-12-04T22:20:35.226Z,13.05
2018-12-04T22:23:02.654Z,12.98
2018-12-04T22:25:30.091Z,12.30
2018-12-04T22:27:57.846Z,13.85
2018-12-04T22:30:25.267Z,15.90
2018-12-04T22:32:52.767Z,15.90
2018-12-04T22:35:20.195Z,14.70
2018-12-04T22:37:47.663Z,15.63
2018-12-04T22:40:15.088Z,14.55
2018-12-04T22:42:42.579Z,15.32
2018-12-04T22:45:15.747Z,15.75
2018-12-04T22:47:43.234Z,15.05
2018-12-04T22:50:10.709Z,15.72
2018-12-04T22:52:38.181Z,18.07
2018-12-04T22:55:05.722Z,15.30
2018-12-04T22:57:33.180Z,15.25
2018-12-04T23:00:00.605Z,15.90
2018-12-04T23:02:28.043Z,15.98
2018-12-04T23:04:56.173Z,17.35
2018-12-04T23:07:23.642Z,15.48
2018-12-04T23:09:51.075Z,15.60
2018-12-04T23:12:18.542Z,15.13
2018-12-04T23:14:46.198Z,15.40
2018-12-04T23:17:13.653Z,16.55
2018-12-04T23:19:41.138Z,17.37
2018-12-04T23:22:08.590Z,17.62
2018-12-04T23:24:36.031Z,15.98
2018-12-04T23:27:03.662Z,18.32
2018-12-04T23:29:31.182Z,16.85
2018-12-04T23:31:58.854Z,15.95
2018-12-04T23:34:26.318Z,15.80
2018-12-04T23:36:53.870Z,16.15
2018-12-04T23:39:21.306Z,15.63
2018-12-04T23:41:48.731Z,17.23
2018-12-04T23:44:16.170Z,16.52
2018-12-04T23:46:43.659Z,16.12
2018-12-04T23:49:11.100Z,18.05
2018-12-04T23:51:38.539Z,16.07
2018-12-04T23:54:06.019Z,19.30
2018-12-04T23:56:33.447Z,18.40
2018-12-04T23:59:00.898Z,16.23
